sensor_id;sensor_type;location;lat;lon;timestamp;P1;durP1;ratioP1;P2;durP2;ratioP2
21215;SDS011;10765;50.954;5.322;2023-02-04T00:02:02;26.20;;;11.67;;
21215;SDS011;10765;50.954;5.322;2023-02-04T00:04:29;28.33;;;16.47;;
21215;SDS011;10765;50.954;5.322;2023-02-04T00:06:56;19.97;;;9.93;;
21215;SDS011;10765;50.954;5.322;2023-02-04T00:09:23;18.50;;;9.73;;
21215;SDS011;10765;50.954;5.322;2023-02-04T00:11:50;19.27;;;10.37;;
21215;SDS011;10765;50.954;5.322;2023-02-04T00:14:19;20.10;;;11.00;;
21215;SDS011;10765;50.954;5.322;2023-02-04T00:16:46;44.90;;;22.97;;
21215;SDS011;10765;50.954;5.322;2023-02-04T00:19:13;15.57;;;8.83;;
21215;SDS011;10765;50.954;5.322;2023-02-04T00:21:41;22.73;;;11.37;;
21215;SDS011;10765;50.954;5.322;2023-02-04T00:24:07;15.37;;;9.13;;
21215;SDS011;10765;50.954;5.322;2023-02-04T00:26:35;20.73;;;9.30;;
21215;SDS011;10765;50.954;5.322;2023-02-04T00:29:02;18.67;;;9.20;;
21215;SDS011;10765;50.954;5.322;2023-02-04T00:31:30;16.97;;;7.80;;
21215;SDS011;10765;50.954;5.322;2023-02-04T00:33:57;14.77;;;7.30;;
21215;SDS011;10765;50.954;5.322;2023-02-04T00:36:24;12.27;;;7.40;;
21215;SDS011;10765;50.954;5.322;2023-02-04T00:38:51;14.00;;;7.63;;
21215;SDS011;10765;50.954;5.322;2023-02-04T00:41:18;15.47;;;8.10;;
21215;SDS011;10765;50.954;5.322;2023-02-04T00:43:45;14.50;;;7.50;;
21215;SDS011;10765;50.954;5.322;2023-02-04T00:46:11;8.93;;;6.73;;
21215;SDS011;10765;50.954;5.322;2023-02-04T00:48:40;15.03;;;7.90;;
21215;SDS011;10765;50.954;5.322;2023-02-04T00:51:07;11.67;;;7.70;;
21215;SDS011;10765;50.954;5.322;2023-02-04T00:53:33;12.43;;;7.30;;
21215;SDS011;10765;50.954;5.322;2023-02-04T00:56:00;12.97;;;7.87;;
21215;SDS011;10765;50.954;5.322;2023-02-04T00:58:27;10.67;;;7.00;;
21215;SDS011;10765;50.954;5.322;2023-02-04T01:00:54;13.70;;;7.67;;
21215;SDS011;10765;50.954;5.322;2023-02-04T01:03:21;12.60;;;6.73;;
21215;SDS011;10765;50.954;5.322;2023-02-04T01:05:49;10.83;;;6.27;;
21215;SDS011;10765;50.954;5.322;2023-02-04T01:08:16;9.07;;;5.20;;
21215;SDS011;10765;50.954;5.322;2023-02-04T01:10:43;10.37;;;5.30;;
21215;SDS011;10765;50.954;5.322;2023-02-04T01:13:10;11.00;;;5.03;;
21215;SDS011;10765;50.954;5.322;2023-02-04T01:15:37;9.90;;;5.00;;
21215;SDS011;10765;50.954;5.322;2023-02-04T01:18:04;10.07;;;4.63;;
21215;SDS011;10765;50.954;5.322;2023-02-04T01:20:31;8.80;;;3.93;;
21215;SDS011;10765;50.954;5.322;2023-02-04T01:22:59;8.27;;;4.37;;
21215;SDS011;10765;50.954;5.322;2023-02-04T01:25:26;8.80;;;3.97;;
21215;SDS011;10765;50.954;5.322;2023-02-04T01:27:53;8.63;;;3.73;;
21215;SDS011;10765;50.954;5.322;2023-02-04T01:30:20;10.97;;;4.73;;
21215;SDS011;10765;50.954;5.322;2023-02-04T01:32:47;11.43;;;3.80;;
21215;SDS011;10765;50.954;5.322;2023-02-04T01:35:14;10.87;;;3.70;;
21215;SDS011;10765;50.954;5.322;2023-02-04T01:37:41;7.57;;;3.87;;
21215;SDS011;10765;50.954;5.322;2023-02-04T01:40:10;10.23;;;3.60;;
21215;SDS011;10765;50.954;5.322;2023-02-04T01:42:38;11.67;;;3.90;;
21215;SDS011;10765;50.954;5.322;2023-02-04T01:45:05;8.57;;;3.30;;
21215;SDS011;10765;50.954;5.322;2023-02-04T01:47:33;10.77;;;4.23;;
21215;SDS011;10765;50.954;5.322;2023-02-04T01:50:00;9.87;;;4.13;;
21215;SDS011;10765;50.954;5.322;2023-02-04T01:52:28;12.77;;;4.20;;
21215;SDS011;10765;50.954;5.322;2023-02-04T01:54:59;10.17;;;3.90;;
21215;SDS011;10765;50.954;5.322;2023-02-04T01:57:27;11.03;;;4.40;;
21215;SDS011;10765;50.954;5.322;2023-02-04T01:59:54;9.47;;;4.40;;
21215;SDS011;10765;50.954;5.322;2023-02-04T02:02:38;10.13;;;4.40;;
21215;SDS011;10765;50.954;5.322;2023-02-04T02:05:07;11.37;;;4.97;;
21215;SDS011;10765;50.954;5.322;2023-02-04T02:07:35;13.93;;;5.00;;
21215;SDS011;10765;50.954;5.322;2023-02-04T02:10:02;9.43;;;5.50;;
21215;SDS011;10765;50.954;5.322;2023-02-04T02:12:32;12.57;;;5.53;;
21215;SDS011;10765;50.954;5.322;2023-02-04T02:14:59;14.90;;;6.53;;
21215;SDS011;10765;50.954;5.322;2023-02-04T02:17:27;13.77;;;7.20;;
21215;SDS011;10765;50.954;5.322;2023-02-04T02:19:54;12.80;;;6.93;;
21215;SDS011;10765;50.954;5.322;2023-02-04T02:22:22;12.27;;;6.83;;
21215;SDS011;10765;50.954;5.322;2023-02-04T02:24:54;8.47;;;5.17;;
21215;SDS011;10765;50.954;5.322;2023-02-04T02:27:21;9.23;;;6.17;;
21215;SDS011;10765;50.954;5.322;2023-02-04T02:29:49;9.47;;;5.53;;
21215;SDS011;10765;50.954;5.322;2023-02-04T02:32:16;9.40;;;5.43;;
21215;SDS011;10765;50.954;5.322;2023-02-04T02:34:44;11.50;;;5.87;;
21215;SDS011;10765;50.954;5.322;2023-02-04T02:37:12;12.50;;;6.57;;
21215;SDS011;10765;50.954;5.322;2023-02-04T02:39:39;14.30;;;7.23;;
21215;SDS011;10765;50.954;5.322;2023-02-04T02:42:10;11.00;;;6.50;;
21215;SDS011;10765;50.954;5.322;2023-02-04T02:44:39;13.67;;;6.90;;
21215;SDS011;10765;50.954;5.322;2023-02-04T02:47:07;16.20;;;6.87;;
21215;SDS011;10765;50.954;5.322;2023-02-04T02:49:37;16.47;;;8.30;;
21215;SDS011;10765;50.954;5.322;2023-02-04T02:52:04;21.13;;;8.73;;
21215;SDS011;10765;50.954;5.322;2023-02-04T02:54:32;22.73;;;9.20;;
21215;SDS011;10765;50.954;5.322;2023-02-04T02:56:59;20.40;;;9.53;;
21215;SDS011;10765;50.954;5.322;2023-02-04T02:59:27;23.30;;;10.73;;
21215;SDS011;10765;50.954;5.322;2023-02-04T03:01:54;16.40;;;10.03;;
21215;SDS011;10765;50.954;5.322;2023-02-04T03:04:24;11.40;;;7.03;;
21215;SDS011;10765;50.954;5.322;2023-02-04T03:06:53;20.17;;;10.50;;
21215;SDS011;10765;50.954;5.322;2023-02-04T03:09:21;44.10;;;21.00;;
21215;SDS011;10765;50.954;5.322;2023-02-04T03:11:49;32.40;;;15.33;;
21215;SDS011;10765;50.954;5.322;2023-02-04T03:14:16;22.57;;;12.67;;
21215;SDS011;10765;50.954;5.322;2023-02-04T03:16:45;16.37;;;10.90;;
21215;SDS011;10765;50.954;5.322;2023-02-04T03:19:13;50.80;;;26.10;;
21215;SDS011;10765;50.954;5.322;2023-02-04T03:21:40;56.23;;;28.20;;
21215;SDS011;10765;50.954;5.322;2023-02-04T03:24:07;26.60;;;15.87;;
21215;SDS011;10765;50.954;5.322;2023-02-04T03:26:35;27.07;;;11.03;;
21215;SDS011;10765;50.954;5.322;2023-02-04T03:29:04;12.33;;;7.73;;
21215;SDS011;10765;50.954;5.322;2023-02-04T03:31:32;12.50;;;7.50;;
21215;SDS011;10765;50.954;5.322;2023-02-04T03:34:00;12.00;;;7.73;;
21215;SDS011;10765;50.954;5.322;2023-02-04T03:36:27;6.97;;;5.83;;
21215;SDS011;10765;50.954;5.322;2023-02-04T03:38:54;11.00;;;7.67;;
21215;SDS011;10765;50.954;5.322;2023-02-04T03:41:21;10.93;;;8.20;;
21215;SDS011;10765;50.954;5.322;2023-02-04T03:43:48;19.00;;;8.00;;
21215;SDS011;10765;50.954;5.322;2023-02-04T03:46:15;12.13;;;7.33;;
21215;SDS011;10765;50.954;5.322;2023-02-04T03:48:42;8.97;;;7.07;;
21215;SDS011;10765;50.954;5.322;2023-02-04T03:51:10;6.00;;;4.47;;
21215;SDS011;10765;50.954;5.322;2023-02-04T03:53:37;7.17;;;5.20;;
21215;SDS011;10765;50.954;5.322;2023-02-04T03:56:04;4.50;;;4.07;;
21215;SDS011;10765;50.954;5.322;2023-02-04T03:58:31;5.43;;;4.63;;
21215;SDS011;10765;50.954;5.322;2023-02-04T04:00:58;7.00;;;5.17;;
21215;SDS011;10765;50.954;5.322;2023-02-04T04:03:25;9.20;;;5.90;;
21215;SDS011;10765;50.954;5.322;2023-02-04T04:05:52;4.30;;;3.80;;
21215;SDS011;10765;50.954;5.322;2023-02-04T04:08:20;13.10;;;8.83;;
21215;SDS011;10765;50.954;5.322;2023-02-04T04:10:47;16.73;;;11.20;;
21215;SDS011;10765;50.954;5.322;2023-02-04T04:13:14;15.00;;;9.60;;
21215;SDS011;10765;50.954;5.322;2023-02-04T04:15:41;15.47;;;11.13;;
21215;SDS011;10765;50.954;5.322;2023-02-04T04:18:08;11.67;;;8.87;;
21215;SDS011;10765;50.954;5.322;2023-02-04T04:20:35;17.67;;;10.33;;
21215;SDS011;10765;50.954;5.322;2023-02-04T04:23:01;14.97;;;10.90;;
21215;SDS011;10765;50.954;5.322;2023-02-04T04:25:30;15.43;;;9.67;;
21215;SDS011;10765;50.954;5.322;2023-02-04T04:27:57;20.50;;;11.73;;
21215;SDS011;10765;50.954;5.322;2023-02-04T04:30:23;12.53;;;9.70;;
21215;SDS011;10765;50.954;5.322;2023-02-04T04:32:50;20.77;;;12.90;;
21215;SDS011;10765;50.954;5.322;2023-02-04T04:35:17;16.47;;;11.97;;
21215;SDS011;10765;50.954;5.322;2023-02-04T04:37:44;20.03;;;13.53;;
21215;SDS011;10765;50.954;5.322;2023-02-04T04:40:11;13.87;;;10.23;;
21215;SDS011;10765;50.954;5.322;2023-02-04T04:42:39;11.57;;;9.23;;
21215;SDS011;10765;50.954;5.322;2023-02-04T04:45:07;12.47;;;9.73;;
21215;SDS011;10765;50.954;5.322;2023-02-04T04:47:35;15.20;;;9.00;;
21215;SDS011;10765;50.954;5.322;2023-02-04T04:50:02;23.77;;;12.67;;
21215;SDS011;10765;50.954;5.322;2023-02-04T04:52:30;24.40;;;14.07;;
21215;SDS011;10765;50.954;5.322;2023-02-04T04:54:56;30.30;;;14.83;;
21215;SDS011;10765;50.954;5.322;2023-02-04T04:57:23;69.30;;;22.13;;
21215;SDS011;10765;50.954;5.322;2023-02-04T04:59:52;32.50;;;17.23;;
21215;SDS011;10765;50.954;5.322;2023-02-04T05:02:18;38.17;;;17.97;;
21215;SDS011;10765;50.954;5.322;2023-02-04T05:04:45;34.10;;;14.70;;
21215;SDS011;10765;50.954;5.322;2023-02-04T05:07:12;47.73;;;17.80;;
21215;SDS011;10765;50.954;5.322;2023-02-04T05:09:39;45.60;;;16.77;;
21215;SDS011;10765;50.954;5.322;2023-02-04T05:12:06;40.77;;;16.80;;
21215;SDS011;10765;50.954;5.322;2023-02-04T05:14:33;41.97;;;16.67;;
21215;SDS011;10765;50.954;5.322;2023-02-04T05:17:01;24.77;;;15.10;;
21215;SDS011;10765;50.954;5.322;2023-02-04T05:19:28;29.97;;;15.50;;
21215;SDS011;10765;50.954;5.322;2023-02-04T05:21:55;63.37;;;17.87;;
21215;SDS011;10765;50.954;5.322;2023-02-04T05:24:25;27.77;;;16.10;;
21215;SDS011;10765;50.954;5.322;2023-02-04T05:26:52;134.73;;;24.17;;
21215;SDS011;10765;50.954;5.322;2023-02-04T05:29:19;32.27;;;17.33;;
21215;SDS011;10765;50.954;5.322;2023-02-04T05:31:46;38.53;;;17.73;;
21215;SDS011;10765;50.954;5.322;2023-02-04T05:34:14;36.17;;;18.27;;
21215;SDS011;10765;50.954;5.322;2023-02-04T05:36:41;32.20;;;17.43;;
21215;SDS011;10765;50.954;5.322;2023-02-04T05:39:08;30.97;;;17.83;;
21215;SDS011;10765;50.954;5.322;2023-02-04T05:41:35;41.87;;;16.80;;
21215;SDS011;10765;50.954;5.322;2023-02-04T05:44:02;34.57;;;17.17;;
21215;SDS011;10765;50.954;5.322;2023-02-04T05:46:29;33.97;;;16.73;;
21215;SDS011;10765;50.954;5.322;2023-02-04T05:48:55;51.60;;;18.03;;
21215;SDS011;10765;50.954;5.322;2023-02-04T05:51:24;25.47;;;14.63;;
21215;SDS011;10765;50.954;5.322;2023-02-04T05:53:51;35.37;;;17.47;;
21215;SDS011;10765;50.954;5.322;2023-02-04T05:56:18;20.93;;;14.67;;
21215;SDS011;10765;50.954;5.322;2023-02-04T05:58:44;24.93;;;14.97;;
21215;SDS011;10765;50.954;5.322;2023-02-04T06:01:11;30.27;;;18.27;;
21215;SDS011;10765;50.954;5.322;2023-02-04T06:03:38;64.93;;;34.67;;
21215;SDS011;10765;50.954;5.322;2023-02-04T06:06:05;43.33;;;25.90;;
21215;SDS011;10765;50.954;5.322;2023-02-04T06:08:33;25.03;;;15.60;;
21215;SDS011;10765;50.954;5.322;2023-02-04T06:11:00;34.63;;;21.00;;
21215;SDS011;10765;50.954;5.322;2023-02-04T06:13:27;24.47;;;16.17;;
21215;SDS011;10765;50.954;5.322;2023-02-04T06:15:54;38.33;;;20.40;;
21215;SDS011;10765;50.954;5.322;2023-02-04T06:18:21;48.20;;;31.70;;
21215;SDS011;10765;50.954;5.322;2023-02-04T06:20:48;41.17;;;29.20;;
21215;SDS011;10765;50.954;5.322;2023-02-04T06:23:15;32.03;;;21.97;;
21215;SDS011;10765;50.954;5.322;2023-02-04T06:25:43;25.43;;;16.50;;
21215;SDS011;10765;50.954;5.322;2023-02-04T06:28:11;27.20;;;14.43;;
21215;SDS011;10765;50.954;5.322;2023-02-04T06:30:38;32.20;;;19.83;;
21215;SDS011;10765;50.954;5.322;2023-02-04T06:33:05;51.03;;;36.43;;
21215;SDS011;10765;50.954;5.322;2023-02-04T06:35:32;37.33;;;23.83;;
21215;SDS011;10765;50.954;5.322;2023-02-04T06:37:59;29.33;;;21.93;;
21215;SDS011;10765;50.954;5.322;2023-02-04T06:40:26;34.27;;;19.23;;
21215;SDS011;10765;50.954;5.322;2023-02-04T06:42:54;26.57;;;15.53;;
21215;SDS011;10765;50.954;5.322;2023-02-04T06:45:21;24.47;;;14.03;;
21215;SDS011;10765;50.954;5.322;2023-02-04T06:47:48;29.77;;;15.43;;
21215;SDS011;10765;50.954;5.322;2023-02-04T06:50:15;27.90;;;15.43;;
21215;SDS011;10765;50.954;5.322;2023-02-04T06:52:43;39.03;;;17.63;;
21215;SDS011;10765;50.954;5.322;2023-02-04T06:55:10;36.83;;;17.63;;
21215;SDS011;10765;50.954;5.322;2023-02-04T06:57:37;33.43;;;16.07;;
21215;SDS011;10765;50.954;5.322;2023-02-04T07:00:07;36.73;;;16.83;;
21215;SDS011;10765;50.954;5.322;2023-02-04T07:02:35;45.10;;;18.03;;
21215;SDS011;10765;50.954;5.322;2023-02-04T07:05:03;43.93;;;20.10;;
21215;SDS011;10765;50.954;5.322;2023-02-04T07:07:31;38.20;;;18.13;;
21215;SDS011;10765;50.954;5.322;2023-02-04T07:09:58;41.47;;;18.90;;
21215;SDS011;10765;50.954;5.322;2023-02-04T07:12:26;36.73;;;18.90;;
21215;SDS011;10765;50.954;5.322;2023-02-04T07:14:53;33.87;;;19.13;;
21215;SDS011;10765;50.954;5.322;2023-02-04T07:17:21;37.13;;;18.07;;
21215;SDS011;10765;50.954;5.322;2023-02-04T07:19:48;35.07;;;17.80;;
21215;SDS011;10765;50.954;5.322;2023-02-04T07:22:17;36.43;;;18.13;;
21215;SDS011;10765;50.954;5.322;2023-02-04T07:24:44;34.17;;;18.33;;
21215;SDS011;10765;50.954;5.322;2023-02-04T07:27:11;35.33;;;19.40;;
21215;SDS011;10765;50.954;5.322;2023-02-04T07:29:37;35.93;;;18.73;;
21215;SDS011;10765;50.954;5.322;2023-02-04T07:32:04;35.13;;;18.50;;
21215;SDS011;10765;50.954;5.322;2023-02-04T07:34:33;39.23;;;19.50;;
21215;SDS011;10765;50.954;5.322;2023-02-04T07:37:00;35.50;;;19.87;;
21215;SDS011;10765;50.954;5.322;2023-02-04T07:39:28;32.77;;;18.33;;
21215;SDS011;10765;50.954;5.322;2023-02-04T07:41:55;29.60;;;18.40;;
21215;SDS011;10765;50.954;5.322;2023-02-04T07:44:21;31.57;;;16.67;;
21215;SDS011;10765;50.954;5.322;2023-02-04T07:46:48;28.57;;;16.40;;
21215;SDS011;10765;50.954;5.322;2023-02-04T07:49:15;29.63;;;17.10;;
21215;SDS011;10765;50.954;5.322;2023-02-04T07:51:43;30.03;;;17.27;;
21215;SDS011;10765;50.954;5.322;2023-02-04T07:54:10;26.60;;;16.70;;
21215;SDS011;10765;50.954;5.322;2023-02-04T07:56:37;28.73;;;16.37;;
21215;SDS011;10765;50.954;5.322;2023-02-04T07:59:04;29.80;;;17.03;;
21215;SDS011;10765;50.954;5.322;2023-02-04T08:01:31;29.93;;;17.27;;
21215;SDS011;10765;50.954;5.322;2023-02-04T08:03:58;33.10;;;18.30;;
21215;SDS011;10765;50.954;5.322;2023-02-04T08:06:25;29.13;;;17.77;;
21215;SDS011;10765;50.954;5.322;2023-02-04T08:08:53;28.13;;;16.90;;
21215;SDS011;10765;50.954;5.322;2023-02-04T08:11:20;28.00;;;17.70;;
21215;SDS011;10765;50.954;5.322;2023-02-04T08:13:47;30.50;;;18.73;;
21215;SDS011;10765;50.954;5.322;2023-02-04T08:16:14;28.23;;;17.57;;
21215;SDS011;10765;50.954;5.322;2023-02-04T08:18:41;25.63;;;17.13;;
21215;SDS011;10765;50.954;5.322;2023-02-04T08:21:08;29.33;;;18.10;;
21215;SDS011;10765;50.954;5.322;2023-02-04T08:23:34;29.67;;;18.40;;
21215;SDS011;10765;50.954;5.322;2023-02-04T08:26:07;32.00;;;19.23;;
21215;SDS011;10765;50.954;5.322;2023-02-04T08:28:34;26.93;;;18.33;;
21215;SDS011;10765;50.954;5.322;2023-02-04T08:31:01;28.07;;;17.20;;
21215;SDS011;10765;50.954;5.322;2023-02-04T08:33:29;28.67;;;18.50;;
21215;SDS011;10765;50.954;5.322;2023-02-04T08:35:56;27.27;;;17.90;;
21215;SDS011;10765;50.954;5.322;2023-02-04T08:38:23;26.63;;;18.33;;
21215;SDS011;10765;50.954;5.322;2023-02-04T08:40:49;27.63;;;18.70;;
21215;SDS011;10765;50.954;5.322;2023-02-04T08:43:18;26.63;;;17.40;;
21215;SDS011;10765;50.954;5.322;2023-02-04T08:45:45;25.03;;;16.87;;
21215;SDS011;10765;50.954;5.322;2023-02-04T08:48:11;23.97;;;15.60;;
21215;SDS011;10765;50.954;5.322;2023-02-04T08:50:38;21.83;;;15.93;;
21215;SDS011;10765;50.954;5.322;2023-02-04T08:53:05;21.30;;;15.33;;
21215;SDS011;10765;50.954;5.322;2023-02-04T08:55:32;20.27;;;15.33;;
21215;SDS011;10765;50.954;5.322;2023-02-04T08:57:59;19.57;;;15.40;;
21215;SDS011;10765;50.954;5.322;2023-02-04T09:00:28;23.30;;;16.57;;
21215;SDS011;10765;50.954;5.322;2023-02-04T09:02:55;23.37;;;16.63;;
21215;SDS011;10765;50.954;5.322;2023-02-04T09:05:22;19.03;;;14.60;;
21215;SDS011;10765;50.954;5.322;2023-02-04T09:07:49;21.77;;;15.47;;
21215;SDS011;10765;50.954;5.322;2023-02-04T09:10:16;20.47;;;15.37;;
21215;SDS011;10765;50.954;5.322;2023-02-04T09:12:43;25.37;;;17.00;;
21215;SDS011;10765;50.954;5.322;2023-02-04T09:15:10;24.90;;;16.40;;
21215;SDS011;10765;50.954;5.322;2023-02-04T09:17:39;21.93;;;15.53;;
21215;SDS011;10765;50.954;5.322;2023-02-04T09:20:08;23.60;;;16.70;;
21215;SDS011;10765;50.954;5.322;2023-02-04T09:22:36;22.33;;;16.20;;
21215;SDS011;10765;50.954;5.322;2023-02-04T09:25:04;23.67;;;15.73;;
21215;SDS011;10765;50.954;5.322;2023-02-04T09:27:31;24.93;;;15.77;;
21215;SDS011;10765;50.954;5.322;2023-02-04T09:29:58;23.93;;;15.30;;
21215;SDS011;10765;50.954;5.322;2023-02-04T09:32:25;27.77;;;16.43;;
21215;SDS011;10765;50.954;5.322;2023-02-04T09:34:53;24.80;;;14.73;;
21215;SDS011;10765;50.954;5.322;2023-02-04T09:37:20;25.50;;;15.10;;
21215;SDS011;10765;50.954;5.322;2023-02-04T09:39:48;25.27;;;16.00;;
21215;SDS011;10765;50.954;5.322;2023-02-04T09:42:15;26.47;;;16.67;;
21215;SDS011;10765;50.954;5.322;2023-02-04T09:44:43;27.80;;;17.97;;
21215;SDS011;10765;50.954;5.322;2023-02-04T09:47:10;24.73;;;17.10;;
21215;SDS011;10765;50.954;5.322;2023-02-04T09:49:39;25.83;;;17.30;;
21215;SDS011;10765;50.954;5.322;2023-02-04T09:52:11;25.60;;;17.10;;
21215;SDS011;10765;50.954;5.322;2023-02-04T09:54:41;28.70;;;18.00;;
21215;SDS011;10765;50.954;5.322;2023-02-04T09:57:11;89.83;;;56.63;;
21215;SDS011;10765;50.954;5.322;2023-02-04T09:59:40;53.73;;;34.73;;
21215;SDS011;10765;50.954;5.322;2023-02-04T10:02:13;30.07;;;21.80;;
21215;SDS011;10765;50.954;5.322;2023-02-04T10:04:46;26.00;;;17.53;;
21215;SDS011;10765;50.954;5.322;2023-02-04T10:07:16;25.03;;;17.43;;
21215;SDS011;10765;50.954;5.322;2023-02-04T10:09:48;26.90;;;18.53;;
21215;SDS011;10765;50.954;5.322;2023-02-04T10:12:15;54.63;;;33.37;;
21215;SDS011;10765;50.954;5.322;2023-02-04T10:14:42;28.50;;;19.10;;
21215;SDS011;10765;50.954;5.322;2023-02-04T10:17:16;28.17;;;17.23;;
21215;SDS011;10765;50.954;5.322;2023-02-04T10:19:47;25.03;;;17.10;;
21215;SDS011;10765;50.954;5.322;2023-02-04T10:22:16;29.20;;;18.40;;
21215;SDS011;10765;50.954;5.322;2023-02-04T10:24:45;48.87;;;32.53;;
21215;SDS011;10765;50.954;5.322;2023-02-04T10:27:12;45.73;;;29.70;;
21215;SDS011;10765;50.954;5.322;2023-02-04T10:29:41;41.93;;;28.23;;
21215;SDS011;10765;50.954;5.322;2023-02-04T10:32:25;31.30;;;20.10;;
21215;SDS011;10765;50.954;5.322;2023-02-04T10:34:57;28.57;;;20.30;;
21215;SDS011;10765;50.954;5.322;2023-02-04T10:37:26;37.70;;;25.50;;
21215;SDS011;10765;50.954;5.322;2023-02-04T10:39:54;34.67;;;21.10;;
21215;SDS011;10765;50.954;5.322;2023-02-04T10:42:22;31.43;;;20.53;;
21215;SDS011;10765;50.954;5.322;2023-02-04T10:44:50;39.37;;;28.03;;
21215;SDS011;10765;50.954;5.322;2023-02-04T10:47:18;31.70;;;19.00;;
21215;SDS011;10765;50.954;5.322;2023-02-04T10:49:53;37.17;;;22.97;;
21215;SDS011;10765;50.954;5.322;2023-02-04T10:52:21;30.97;;;20.37;;
21215;SDS011;10765;50.954;5.322;2023-02-04T10:54:51;30.73;;;22.27;;
21215;SDS011;10765;50.954;5.322;2023-02-04T10:57:20;29.20;;;22.00;;
21215;SDS011;10765;50.954;5.322;2023-02-04T10:59:49;29.20;;;19.70;;
21215;SDS011;10765;50.954;5.322;2023-02-04T11:02:25;29.37;;;18.17;;
21215;SDS011;10765;50.954;5.322;2023-02-04T11:05:02;28.33;;;18.97;;
21215;SDS011;10765;50.954;5.322;2023-02-04T11:07:30;26.20;;;17.33;;
21215;SDS011;10765;50.954;5.322;2023-02-04T11:09:58;25.13;;;17.73;;
21215;SDS011;10765;50.954;5.322;2023-02-04T11:12:36;28.07;;;18.90;;
21215;SDS011;10765;50.954;5.322;2023-02-04T11:15:05;24.63;;;16.20;;
21215;SDS011;10765;50.954;5.322;2023-02-04T11:17:57;23.73;;;16.50;;
21215;SDS011;10765;50.954;5.322;2023-02-04T11:20:29;23.10;;;15.47;;
21215;SDS011;10765;50.954;5.322;2023-02-04T11:23:12;22.10;;;14.77;;
21215;SDS011;10765;50.954;5.322;2023-02-04T11:26:02;25.50;;;16.00;;
21215;SDS011;10765;50.954;5.322;2023-02-04T11:28:37;24.47;;;16.50;;
21215;SDS011;10765;50.954;5.322;2023-02-04T11:31:26;24.10;;;16.13;;
21215;SDS011;10765;50.954;5.322;2023-02-04T11:34:06;27.73;;;17.30;;
21215;SDS011;10765;50.954;5.322;2023-02-04T11:36:48;25.23;;;16.47;;
21215;SDS011;10765;50.954;5.322;2023-02-04T11:39:19;29.63;;;17.30;;
21215;SDS011;10765;50.954;5.322;2023-02-04T11:41:48;24.63;;;17.37;;
21215;SDS011;10765;50.954;5.322;2023-02-04T11:44:15;21.50;;;16.03;;
21215;SDS011;10765;50.954;5.322;2023-02-04T11:46:47;22.90;;;16.57;;
21215;SDS011;10765;50.954;5.322;2023-02-04T11:49:15;26.10;;;20.47;;
21215;SDS011;10765;50.954;5.322;2023-02-04T11:51:45;19.07;;;13.70;;
21215;SDS011;10765;50.954;5.322;2023-02-04T11:54:12;21.87;;;14.47;;
21215;SDS011;10765;50.954;5.322;2023-02-04T11:56:43;24.33;;;14.97;;
21215;SDS011;10765;50.954;5.322;2023-02-04T11:59:12;68.47;;;38.77;;
21215;SDS011;10765;50.954;5.322;2023-02-04T12:01:41;26.57;;;17.23;;
21215;SDS011;10765;50.954;5.322;2023-02-04T12:04:20;29.17;;;16.97;;
21215;SDS011;10765;50.954;5.322;2023-02-04T12:06:55;25.73;;;15.80;;
21215;SDS011;10765;50.954;5.322;2023-02-04T12:09:24;27.40;;;16.87;;
21215;SDS011;10765;50.954;5.322;2023-02-04T12:11:54;24.07;;;15.90;;
21215;SDS011;10765;50.954;5.322;2023-02-04T12:14:26;29.70;;;18.63;;
21215;SDS011;10765;50.954;5.322;2023-02-04T12:16:54;34.97;;;18.60;;
21215;SDS011;10765;50.954;5.322;2023-02-04T12:19:21;29.87;;;16.83;;
21215;SDS011;10765;50.954;5.322;2023-02-04T12:21:48;22.50;;;14.83;;
21215;SDS011;10765;50.954;5.322;2023-02-04T12:24:15;22.10;;;14.67;;
21215;SDS011;10765;50.954;5.322;2023-02-04T12:26:43;24.37;;;15.53;;
21215;SDS011;10765;50.954;5.322;2023-02-04T12:29:10;25.83;;;15.53;;
21215;SDS011;10765;50.954;5.322;2023-02-04T12:31:38;21.70;;;13.60;;
21215;SDS011;10765;50.954;5.322;2023-02-04T12:34:05;23.07;;;13.07;;
21215;SDS011;10765;50.954;5.322;2023-02-04T12:36:32;21.83;;;13.10;;
21215;SDS011;10765;50.954;5.322;2023-02-04T12:38:59;21.90;;;13.53;;
21215;SDS011;10765;50.954;5.322;2023-02-04T12:41:27;26.03;;;14.93;;
21215;SDS011;10765;50.954;5.322;2023-02-04T12:43:54;25.13;;;15.20;;
21215;SDS011;10765;50.954;5.322;2023-02-04T12:46:20;22.33;;;14.53;;
21215;SDS011;10765;50.954;5.322;2023-02-04T12:48:49;24.40;;;15.27;;
21215;SDS011;10765;50.954;5.322;2023-02-04T12:51:16;22.40;;;13.37;;
21215;SDS011;10765;50.954;5.322;2023-02-04T12:53:44;23.53;;;15.20;;
21215;SDS011;10765;50.954;5.322;2023-02-04T12:56:12;27.17;;;16.87;;
21215;SDS011;10765;50.954;5.322;2023-02-04T12:58:39;23.53;;;16.37;;
21215;SDS011;10765;50.954;5.322;2023-02-04T13:01:06;22.33;;;14.37;;
21215;SDS011;10765;50.954;5.322;2023-02-04T13:03:33;22.33;;;13.50;;
21215;SDS011;10765;50.954;5.322;2023-02-04T13:06:01;22.27;;;13.03;;
21215;SDS011;10765;50.954;5.322;2023-02-04T13:08:28;22.07;;;13.47;;
21215;SDS011;10765;50.954;5.322;2023-02-04T13:10:55;20.90;;;13.50;;
21215;SDS011;10765;50.954;5.322;2023-02-04T13:13:22;21.50;;;12.63;;
21215;SDS011;10765;50.954;5.322;2023-02-04T13:15:49;21.43;;;12.77;;
21215;SDS011;10765;50.954;5.322;2023-02-04T13:18:16;23.03;;;14.03;;
21215;SDS011;10765;50.954;5.322;2023-02-04T13:20:43;26.23;;;13.83;;
21215;SDS011;10765;50.954;5.322;2023-02-04T13:23:12;24.13;;;15.73;;
21215;SDS011;10765;50.954;5.322;2023-02-04T13:25:39;21.53;;;13.67;;
21215;SDS011;10765;50.954;5.322;2023-02-04T13:28:07;23.27;;;14.47;;
21215;SDS011;10765;50.954;5.322;2023-02-04T13:30:34;23.13;;;14.70;;
21215;SDS011;10765;50.954;5.322;2023-02-04T13:33:01;30.27;;;16.20;;
21215;SDS011;10765;50.954;5.322;2023-02-04T13:35:28;22.97;;;16.10;;
21215;SDS011;10765;50.954;5.322;2023-02-04T13:37:55;37.53;;;33.67;;
21215;SDS011;10765;50.954;5.322;2023-02-04T13:40:23;31.17;;;21.37;;
21215;SDS011;10765;50.954;5.322;2023-02-04T13:42:50;43.60;;;39.60;;
21215;SDS011;10765;50.954;5.322;2023-02-04T13:45:17;29.73;;;17.60;;
21215;SDS011;10765;50.954;5.322;2023-02-04T13:47:44;26.63;;;17.40;;
21215;SDS011;10765;50.954;5.322;2023-02-04T13:50:12;26.40;;;16.27;;
21215;SDS011;10765;50.954;5.322;2023-02-04T13:52:38;24.83;;;15.90;;
21215;SDS011;10765;50.954;5.322;2023-02-04T13:55:05;25.67;;;15.80;;
21215;SDS011;10765;50.954;5.322;2023-02-04T13:57:34;22.37;;;14.07;;
21215;SDS011;10765;50.954;5.322;2023-02-04T14:00:02;27.40;;;20.73;;
21215;SDS011;10765;50.954;5.322;2023-02-04T14:02:30;24.03;;;18.20;;
21215;SDS011;10765;50.954;5.322;2023-02-04T14:04:57;75.40;;;69.60;;
21215;SDS011;10765;50.954;5.322;2023-02-04T14:07:25;24.67;;;15.33;;
21215;SDS011;10765;50.954;5.322;2023-02-04T14:09:54;21.03;;;11.30;;
21215;SDS011;10765;50.954;5.322;2023-02-04T14:12:21;18.77;;;11.20;;
21215;SDS011;10765;50.954;5.322;2023-02-04T14:14:49;20.03;;;11.30;;
21215;SDS011;10765;50.954;5.322;2023-02-04T14:17:16;20.20;;;10.33;;
21215;SDS011;10765;50.954;5.322;2023-02-04T14:19:43;16.90;;;11.77;;
21215;SDS011;10765;50.954;5.322;2023-02-04T14:22:10;23.83;;;19.07;;
21215;SDS011;10765;50.954;5.322;2023-02-04T14:24:37;21.40;;;16.90;;
21215;SDS011;10765;50.954;5.322;2023-02-04T14:27:06;19.10;;;17.30;;
21215;SDS011;10765;50.954;5.322;2023-02-04T14:29:33;18.23;;;11.63;;
21215;SDS011;10765;50.954;5.322;2023-02-04T14:32:02;16.00;;;11.10;;